Time;durP1;ratioP1;P1;durP2;ratioP2;P2;SDS_P1;SDS_P2;PMS_P1;PMS_P2;Temp;Humidity;BMP_temperature;BMP_pressure;BME280_temperature;BME280_humidity;BME280_pressure;Samples;Min_cycle;Max_cycle;Signal;HPM_P1;HPM_P2
2023/07/25 00:01:07;;;;;;;13.43;4.87;;;;;;;22.72;89.17;97770.38;4486044;31;20112;-67
2023/07/25 00:03:35;;;;;;;9.15;4.65;;;;;;;22.65;88.93;97721.66;4486292;31;20105;-67
2023/07/25 00:06:03;;;;;;;14.27;4.47;;;;;;;22.63;88.12;97710.41;4486304;31;20096;-67
2023/07/25 00:08:31;;;;;;;11.63;4.87;;;;;;;22.60;89.14;97708.22;4486110;31;20158;-67
2023/07/25 00:11:00;;;;;;;7.57;4.35;;;;;;;22.57;89.38;97698.03;4486441;31;20116;-67
2023/07/25 00:13:28;;;;;;;11.30;4.90;;;;;;;22.53;90.20;97688.88;4486202;31;20097;-67
2023/07/25 00:15:55;;;;;;;9.35;4.50;;;;;;;22.50;88.49;97693.66;4485983;31;20096;-67
2023/07/25 00:18:22;;;;;;;12.25;4.18;;;;;;;22.63;86.64;97713.87;4486003;31;20092;-67
2023/07/25 00:20:50;;;;;;;8.70;3.95;;;;;;;22.59;86.43;97733.28;4486179;31;20092;-67
2023/07/25 00:23:17;;;;;;;6.93;3.97;;;;;;;22.59;85.65;97722.63;4486043;31;20092;-67
2023/07/25 00:25:46;;;;;;;8.52;4.07;;;;;;;22.63;85.10;97713.87;4486391;31;20438;-67
2023/07/25 00:28:16;;;;;;;9.25;4.95;;;;;;;22.73;83.64;97715.94;4486053;31;20096;-67
2023/07/25 00:30:44;;;;;;;11.50;3.90;;;;;;;22.77;83.38;97729.59;4485947;32;20131;-67
2023/07/25 00:33:11;;;;;;;9.38;4.55;;;;;;;22.80;82.55;97745.13;4485981;31;20115;-67
2023/07/25 00:35:38;;;;;;;10.27;4.25;;;;;;;22.91;80.98;97754.94;4485876;31;20096;-67
2023/07/25 00:38:06;;;;;;;7.85;3.97;;;;;;;23.03;79.64;97776.25;4486050;31;20131;-67
2023/07/25 00:40:38;;;;;;;7.60;4.15;;;;;;;23.09;79.08;97794.00;4486374;31;20096;-67
2023/07/25 00:43:05;;;;;;;9.68;4.47;;;;;;;23.09;79.51;97806.50;4484674;32;20463;-67
2023/07/25 00:45:34;;;;;;;9.18;4.35;;;;;;;23.20;79.86;97829.72;4486062;32;20145;-67
2023/07/25 00:48:02;;;;;;;8.32;4.07;;;;;;;23.21;82.29;97837.50;4485776;31;20096;-67
2023/07/25 00:50:30;;;;;;;13.07;4.70;;;;;;;23.23;83.90;97849.81;4485850;31;20112;-67
2023/07/25 00:52:59;;;;;;;9.68;4.65;;;;;;;23.25;87.14;97855.72;4484631;32;20109;-67
2023/07/25 00:55:27;;;;;;;12.50;4.70;;;;;;;22.82;96.86;97869.34;4485855;31;20461;-67
2023/07/25 00:57:55;;;;;;;11.50;4.87;;;;;;;22.58;99.04;97881.19;4485786;31;20096;-67
2023/07/25 01:00:23;;;;;;;9.40;3.80;;;;;;;22.57;100.00;97892.91;4485749;31;20104;-67
2023/07/25 01:02:52;;;;;;;9.70;4.00;;;;;;;22.32;100.00;97902.00;4485467;32;20101;-67
2023/07/25 01:05:21;;;;;;;10.27;3.83;;;;;;;22.20;100.00;97901.97;4485708;31;20088;-67
2023/07/25 01:07:49;;;;;;;12.37;4.28;;;;;;;21.95;100.00;97903.06;4484361;32;20084;-67
2023/07/25 01:10:18;;;;;;;9.43;3.92;;;;;;;21.88;100.00;97907.69;4485857;32;20141;-67
2023/07/25 01:12:45;;;;;;;11.50;4.10;;;;;;;21.69;100.00;97909.62;4485598;32;20385;-67
2023/07/25 01:15:13;;;;;;;9.18;3.15;;;;;;;21.48;100.00;97915.47;4485736;31;20467;-67
2023/07/25 01:17:41;;;;;;;6.70;3.37;;;;;;;21.27;100.00;97922.94;4485763;31;20156;-67
2023/07/25 01:20:10;;;;;;;8.20;3.53;;;;;;;21.21;100.00;97913.19;4485749;31;20159;-67
2023/07/25 01:22:40;;;;;;;9.52;3.65;;;;;;;21.06;100.00;97900.28;4485800;31;20522;-67
2023/07/25 01:25:08;;;;;;;6.53;3.22;;;;;;;20.98;100.00;97890.78;4485799;31;20561;-67
2023/07/25 01:27:36;;;;;;;5.07;2.80;;;;;;;20.89;100.00;97877.00;4485663;31;20526;-67
2023/07/25 01:30:04;;;;;;;6.60;2.90;;;;;;;20.85;100.00;97881.13;4485751;31;20612;-67
2023/07/25 01:32:32;;;;;;;7.12;2.47;;;;;;;20.78;100.00;97875.06;4485471;31;20149;-67
2023/07/25 01:35:00;;;;;;;12.27;3.67;;;;;;;20.68;100.00;97851.66;4485914;31;20096;-67
2023/07/25 01:37:30;;;;;;;6.28;2.78;;;;;;;20.54;100.00;97818.25;4485370;32;20459;-67
2023/07/25 01:39:58;;;;;;;6.72;2.92;;;;;;;20.52;100.00;97785.75;4485563;31;20454;-67
2023/07/25 01:42:25;;;;;;;11.43;3.10;;;;;;;20.43;100.00;97771.12;4485459;32;20523;-67
2023/07/25 01:44:53;;;;;;;8.07;2.78;;;;;;;20.44;100.00;97781.53;4485402;32;20137;-67
2023/07/25 01:47:25;;;;;;;6.60;2.87;;;;;;;20.39;100.00;97771.56;4485242;31;20171;-67
2023/07/25 01:49:53;;;;;;;7.32;2.72;;;;;;;20.23;100.00;97734.97;4485335;31;20092;-67
2023/07/25 01:52:21;;;;;;;6.97;3.08;;;;;;;20.19;100.00;97707.19;4485225;31;20176;-67
2023/07/25 01:54:51;;;;;;;7.53;3.10;;;;;;;20.10;100.00;97676.63;4485706;31;20088;-67
2023/07/25 01:57:19;;;;;;;11.00;3.10;;;;;;;19.86;100.00;97647.28;4485423;31;20080;-67
2023/07/25 01:59:46;;;;;;;12.52;3.40;;;;;;;19.89;100.00;97644.19;4485410;31;20503;-67
2023/07/25 02:02:13;;;;;;;6.72;2.62;;;;;;;19.94;100.00;97678.06;4485283;32;20108;-67
2023/07/25 02:04:43;;;;;;;7.35;2.85;;;;;;;20.06;100.00;97680.78;4485534;31;20122;-67
2023/07/25 02:07:10;;;;;;;10.38;2.60;;;;;;;20.08;100.00;97674.19;4478775;32;20115;-68
2023/07/25 02:09:37;;;;;;;4.03;2.08;;;;;;;20.07;100.00;97667.25;4485169;31;20096;-67
2023/07/25 02:12:07;;;;;;;7.10;2.65;;;;;;;20.05;100.00;97695.12;4485199;31;20097;-67
2023/07/25 02:14:34;;;;;;;5.68;2.90;;;;;;;20.02;100.00;97718.44;4484511;32;20170;-67
2023/07/25 02:17:01;;;;;;;7.47;2.50;;;;;;;20.07;100.00;97725.75;4485275;31;20164;-67
2023/07/25 02:19:29;;;;;;;9.32;2.60;;;;;;;20.04;100.00;97758.09;4485178;32;20143;-67
2023/07/25 02:21:57;;;;;;;6.12;1.70;;;;;;;19.96;100.00;97767.19;4485254;31;20118;-67
2023/07/25 02:24:25;;;;;;;5.53;2.62;;;;;;;19.88;100.00;97762.19;4485461;31;20089;-67
2023/07/25 02:26:53;;;;;;;11.45;2.33;;;;;;;19.97;100.00;97707.69;4485242;31;20099;-67
2023/07/25 02:29:21;;;;;;;4.07;2.12;;;;;;;19.91;100.00;97594.28;4485156;31;21046;-67
2023/07/25 02:31:49;;;;;;;6.18;2.15;;;;;;;19.90;100.00;97600.63;4485211;32;20096;-67
2023/07/25 02:34:16;;;;;;;4.18;2.42;;;;;;;20.00;100.00;97589.44;4485015;31;20080;-67
2023/07/25 02:36:44;;;;;;;6.18;2.45;;;;;;;20.07;100.00;97565.41;4485174;31;20088;-67
2023/07/25 02:39:12;;;;;;;3.85;2.25;;;;;;;19.93;100.00;97540.91;4485027;31;20096;-67
2023/07/25 02:41:40;;;;;;;8.32;3.00;;;;;;;19.84;100.00;97551.03;4485413;31;20201;-67
2023/07/25 02:44:07;;;;;;;5.28;2.70;;;;;;;19.80;100.00;97544.53;4485163;31;20160;-67
2023/07/25 02:46:34;;;;;;;12.37;2.78;;;;;;;19.81;100.00;97567.44;4485002;31;20153;-67
2023/07/25 02:49:02;;;;;;;6.95;2.87;;;;;;;19.82;100.00;97579.69;4484863;31;20446;-67
2023/07/25 02:51:32;;;;;;;6.62;2.90;;;;;;;19.79;100.00;97593.44;4485041;31;20102;-67
2023/07/25 02:54:00;;;;;;;5.25;2.78;;;;;;;19.77;100.00;97595.44;4484737;32;20168;-67
2023/07/25 02:56:28;;;;;;;8.10;3.10;;;;;;;19.73;100.00;97600.41;4485104;31;20091;-67
2023/07/25 02:58:57;;;;;;;7.62;3.03;;;;;;;19.71;100.00;97609.63;4484833;31;20111;-67
2023/07/25 03:01:24;;;;;;;10.20;3.70;;;;;;;19.59;100.00;97623.69;4485056;32;20100;-66
2023/07/25 03:03:52;;;;;;;10.88;4.00;;;;;;;19.49;100.00;97639.34;4485144;31;20093;-67
2023/07/25 03:06:19;;;;;;;6.37;2.28;;;;;;;19.31;100.00;97646.28;4484946;32;20125;-67
2023/07/25 03:08:47;;;;;;;9.00;2.60;;;;;;;19.25;100.00;97647.16;4484832;31;20100;-67
2023/07/25 03:11:16;;;;;;;7.93;3.08;;;;;;;19.24;100.00;97639.41;4484991;31;20149;-67
2023/07/25 03:13:43;;;;;;;6.78;3.25;;;;;;;19.16;100.00;97651.13;4484708;31;20458;-67
2023/07/25 03:16:12;;;;;;;7.87;2.90;;;;;;;19.16;100.00;97659.09;4484796;31;20108;-67
2023/07/25 03:18:40;;;;;;;8.45;3.08;;;;;;;19.19;100.00;97650.69;4483461;32;20131;-67
2023/07/25 03:21:07;;;;;;;9.63;2.85;;;;;;;19.17;100.00;97644.81;4484891;31;20115;-67
2023/07/25 03:23:36;;;;;;;7.70;2.95;;;;;;;19.13;100.00;97625.81;4484371;31;20414;-67
2023/07/25 03:26:04;;;;;;;8.25;2.70;;;;;;;19.13;100.00;97625.81;4484641;32;20159;-67
2023/07/25 03:28:32;;;;;;;7.43;2.65;;;;;;;19.03;100.00;97630.03;4484677;31;20108;-67
2023/07/25 03:30:59;;;;;;;8.23;2.37;;;;;;;18.96;100.00;97652.13;4484740;31;20093;-67
2023/07/25 03:33:27;;;;;;;11.35;2.42;;;;;;;18.93;100.00;97657.09;4484691;31;20111;-67
2023/07/25 03:35:55;;;;;;;6.00;2.00;;;;;;;18.95;100.00;97655.00;4484893;31;20141;-67
2023/07/25 03:38:22;;;;;;;5.43;2.20;;;;;;;18.92;100.00;97661.56;4484637;31;20161;-67
2023/07/25 03:40:50;;;;;;;8.48;2.47;;;;;;;18.90;100.00;97653.00;4484593;32;20118;-67
2023/07/25 03:43:18;;;;;;;7.60;2.35;;;;;;;18.90;100.00;97647.69;4484529;31;20116;-67
2023/07/25 03:45:46;;;;;;;5.12;2.15;;;;;;;18.92;100.00;97645.63;4484319;31;20391;-67
2023/07/25 03:48:13;;;;;;;8.82;2.75;;;;;;;18.96;100.00;97628.25;4483048;32;20791;-67
2023/07/25 03:50:42;;;;;;;6.43;1.87;;;;;;;18.95;100.00;97629.28;4484209;31;20127;-67
2023/07/25 03:53:11;;;;;;;7.75;2.60;;;;;;;18.93;100.00;97619.94;4478027;32;20527;-67
2023/07/25 03:55:38;;;;;;;7.10;2.40;;;;;;;19.00;100.00;97628.63;4484235;31;20616;-67
2023/07/25 03:58:05;;;;;;;6.95;2.03;;;;;;;19.09;100.00;97635.28;4484406;31;20104;-67
2023/07/25 04:00:33;;;;;;;4.97;2.30;;;;;;;19.10;100.00;97646.69;4483959;31;20100;-67
2023/07/25 04:03:02;;;;;;;5.15;2.83;;;;;;;19.20;100.00;97657.62;4482435;31;20117;-67
2023/07/25 04:05:42;;;;;;;5.32;2.45;;;;;;;19.24;100.00;97658.81;4483241;31;20134;-67
2023/07/25 04:08:10;;;;;;;8.48;2.80;;;;;;;19.38;100.00;97663.97;4484440;31;20100;-67
2023/07/25 04:10:38;;;;;;;9.10;2.62;;;;;;;19.47;100.00;97654.69;4483453;31;20096;-67
2023/07/25 04:13:07;;;;;;;11.10;3.42;;;;;;;19.48;100.00;97645.69;4482457;31;20216;-67
2023/07/25 04:15:36;;;;;;;8.18;3.28;;;;;;;19.59;100.00;97646.78;4483163;31;20113;-67
2023/07/25 04:18:04;;;;;;;6.03;2.83;;;;;;;19.60;100.00;97653.72;4486220;31;20103;-67
2023/07/25 04:20:31;;;;;;;3.95;2.25;;;;;;;19.77;100.00;97656.56;4483090;31;20181;-67
2023/07/25 04:23:00;;;;;;;4.65;2.40;;;;;;;19.81;100.00;97641.84;4485915;31;20506;-67
2023/07/25 04:25:29;;;;;;;8.95;2.25;;;;;;;19.79;100.00;97642.06;4485680;31;20363;-67
2023/07/25 04:27:57;;;;;;;5.87;2.25;;;;;;;19.86;100.00;97639.31;4484105;31;20100;-67
2023/07/25 04:30:25;;;;;;;7.05;2.22;;;;;;;19.87;100.00;97640.94;4485151;31;20093;-67
2023/07/25 04:32:52;;;;;;;7.37;2.10;;;;;;;19.90;100.00;97642.34;4488237;31;20108;-67
2023/07/25 04:35:20;;;;;;;8.25;2.50;;;;;;;19.96;100.00;97649.41;4493292;31;20178;-67
2023/07/25 04:37:47;;;;;;;6.80;2.75;;;;;;;20.06;100.00;97656.84;4482012;31;20601;-67
2023/07/25 04:40:17;;;;;;;13.25;2.72;;;;;;;20.02;100.00;97664.47;4492566;31;20114;-67
2023/07/25 04:42:44;;;;;;;5.62;2.30;;;;;;;20.01;100.00;97666.28;4479506;31;20096;-67
2023/07/25 04:45:12;;;;;;;7.03;2.25;;;;;;;20.15;100.00;97658.16;4484900;31;20123;-67
2023/07/25 04:47:39;;;;;;;6.43;2.83;;;;;;;20.15;100.00;97655.47;4480201;32;20156;-67
2023/07/25 04:50:07;;;;;;;8.00;3.62;;;;;;;20.24;100.00;97646.16;4485368;32;20092;-67
2023/07/25 04:52:36;;;;;;;7.57;3.28;;;;;;;20.44;100.00;97640.53;4485721;31;20118;-67
2023/07/25 04:55:04;;;;;;;8.05;3.25;;;;;;;20.63;100.00;97641.25;4487740;31;20113;-67
2023/07/25 04:57:31;;;;;;;6.93;3.37;;;;;;;20.85;100.00;97640.75;4477814;31;20116;-67
2023/07/25 04:59:59;;;;;;;8.60;2.83;;;;;;;21.14;100.00;97636.31;4486633;31;20123;-67
2023/07/25 05:02:28;;;;;;;8.35;3.15;;;;;;;21.31;100.00;97622.28;4492858;31;20459;-67
2023/07/25 05:04:57;;;;;;;4.97;2.67;;;;;;;21.38;100.00;97618.44;4487000;31;20450;-67
2023/07/25 05:07:25;;;;;;;5.25;2.78;;;;;;;21.48;100.00;97595.72;4489536;31;20477;-67
2023/07/25 05:09:54;;;;;;;8.52;2.20;;;;;;;21.59;100.00;97584.22;4488145;31;20118;-67
2023/07/25 05:12:21;;;;;;;9.68;2.28;;;;;;;21.70;100.00;97591.38;4485718;31;20085;-67
2023/07/25 05:14:49;;;;;;;8.90;2.55;;;;;;;21.87;100.00;97599.41;4487597;31;20485;-67
2023/07/25 05:17:16;;;;;;;8.02;2.33;;;;;;;22.11;100.00;97604.62;4478731;31;20164;-67
2023/07/25 05:19:45;;;;;;;5.05;2.05;;;;;;;22.21;100.00;97593.31;4486195;31;20521;-67
2023/07/25 05:22:17;;;;;;;6.18;2.28;;;;;;;22.30;100.00;97591.87;4485530;31;20409;-67
2023/07/25 05:24:48;;;;;;;5.90;2.58;;;;;;;22.31;100.00;97581.00;4488803;31;20096;-67
2023/07/25 05:27:16;;;;;;;9.43;2.87;;;;;;;22.23;100.00;97583.25;4478522;31;20127;-67
2023/07/25 05:29:44;;;;;;;4.87;2.50;;;;;;;22.45;100.00;97591.34;4485700;31;20810;-67
2023/07/25 05:32:11;;;;;;;3.95;2.12;;;;;;;22.65;100.00;97593.50;4487255;31;20093;-67
2023/07/25 05:34:39;;;;;;;6.05;2.20;;;;;;;22.84;100.00;97592.19;4484239;31;20140;-67
2023/07/25 05:37:06;;;;;;;6.07;2.85;;;;;;;23.07;100.00;97589.56;4469892;32;20104;-67
2023/07/25 05:39:34;;;;;;;8.88;2.42;;;;;;;23.01;100.00;97594.03;4484411;31;21216;-67
2023/07/25 05:42:02;;;;;;;5.25;2.37;;;;;;;23.02;100.00;97603.66;4484513;31;20114;-67
2023/07/25 05:44:29;;;;;;;6.05;2.40;;;;;;;23.15;100.00;97597.16;4483859;31;20100;-68
2023/07/25 05:46:58;;;;;;;5.07;3.05;;;;;;;23.15;100.00;97598.00;4482917;31;20139;-67
2023/07/25 05:49:26;;;;;;;7.47;2.65;;;;;;;23.42;100.00;97609.81;4489840;31;20130;-67
2023/07/25 05:51:54;;;;;;;4.30;2.12;;;;;;;23.52;100.00;97629.44;4486666;31;20100;-66
2023/07/25 05:54:23;;;;;;;5.07;2.08;;;;;;;23.59;100.00;97639.13;4485983;31;20200;-67
2023/07/25 05:56:51;;;;;;;6.95;2.30;;;;;;;23.87;100.00;97641.62;4486103;31;20477;-67
2023/07/25 05:59:20;;;;;;;6.75;2.40;;;;;;;24.00;100.00;97639.66;4486271;31;20104;-67
2023/07/25 06:01:49;;;;;;;6.20;2.50;;;;;;;24.02;99.47;97643.66;4484892;31;20167;-67
2023/07/25 06:04:20;;;;;;;6.72;2.22;;;;;;;23.99;100.00;97644.16;4485231;31;20130;-67
2023/07/25 06:06:49;;;;;;;5.82;2.58;;;;;;;23.74;100.00;97642.00;4471722;32;20620;-67
2023/07/25 06:09:17;;;;;;;7.80;2.78;;;;;;;24.03;100.00;97629.22;4480735;31;20164;-67
2023/07/25 06:11:44;;;;;;;5.60;2.30;;;;;;;24.59;100.00;97626.28;4478632;31;20089;-67
2023/07/25 06:14:12;;;;;;;6.45;2.97;;;;;;;24.97;94.48;97616.34;4475587;31;20168;-67
2023/07/25 06:16:40;;;;;;;10.30;3.30;;;;;;;25.22;92.18;97622.09;4480663;31;20488;-67
2023/07/25 06:19:08;;;;;;;6.45;2.42;;;;;;;25.27;90.02;97620.25;4482025;31;20156;-67
2023/07/25 06:21:36;;;;;;;8.18;2.30;;;;;;;25.27;94.88;97617.59;4477913;31;20126;-67
2023/07/25 06:24:05;;;;;;;6.35;2.80;;;;;;;24.87;94.06;97610.91;4475897;31;20487;-67
2023/07/25 06:26:33;;;;;;;5.30;2.58;;;;;;;24.71;94.38;97609.19;4480307;31;20523;-67
2023/07/25 06:29:00;;;;;;;6.00;2.65;;;;;;;24.69;95.16;97606.78;4478262;31;20092;-67
2023/07/25 06:31:28;;;;;;;4.85;2.40;;;;;;;24.55;95.12;97618.97;4477382;31;20096;-67
2023/07/25 06:33:56;;;;;;;4.03;2.60;;;;;;;24.69;95.12;97597.94;4479906;31;20520;-67
2023/07/25 06:36:24;;;;;;;6.53;2.72;;;;;;;24.72;97.72;97589.41;4480972;31;20467;-67
2023/07/25 06:38:52;;;;;;;5.93;2.58;;;;;;;25.00;96.22;97590.09;4477754;31;20103;-67
2023/07/25 06:41:20;;;;;;;5.75;3.00;;;;;;;25.26;93.93;97580.31;4483313;31;20163;-67
2023/07/25 06:43:48;;;;;;;6.80;2.60;;;;;;;25.39;90.31;97584.41;4477857;31;20197;-67
2023/07/25 06:46:16;;;;;;;5.25;2.75;;;;;;;25.56;90.40;97573.50;4478981;31;20128;-67
2023/07/25 06:48:46;;;;;;;8.60;3.22;;;;;;;25.55;88.05;97571.88;4480149;31;20150;-67
2023/07/25 06:51:13;;;;;;;4.97;2.80;;;;;;;25.84;84.58;97569.50;4477146;31;77544;-67
2023/07/25 06:53:42;;;;;;;6.10;2.62;;;;;;;25.88;85.49;97572.47;4481359;31;20437;-67
2023/07/25 06:56:09;;;;;;;5.82;2.83;;;;;;;26.16;84.49;97555.91;4477114;31;20108;-67
2023/07/25 06:58:38;;;;;;;9.15;2.72;;;;;;;26.05;81.06;97558.84;4480059;31;20092;-67
2023/07/25 07:01:08;;;;;;;8.57;3.12;;;;;;;26.28;82.06;97558.28;4477614;31;20159;-67
2023/07/25 07:03:35;;;;;;;8.07;2.78;;;;;;;26.42;82.93;97547.00;4481237;31;20153;-67
2023/07/25 07:06:08;;;;;;;8.63;3.65;;;;;;;26.34;83.36;97535.75;4476194;31;20454;-67
2023/07/25 07:08:37;;;;;;;4.78;2.58;;;;;;;26.48;83.26;97519.06;4478547;31;20159;-67
2023/07/25 07:11:04;;;;;;;6.78;2.67;;;;;;;26.43;80.50;97509.13;4480095;31;20092;-67
2023/07/25 07:13:33;;;;;;;6.37;2.53;;;;;;;26.39;80.74;97510.78;4479302;31;20100;-67
2023/07/25 07:16:02;;;;;;;4.28;2.65;;;;;;;26.83;76.88;97518.22;4479191;31;20115;-67
2023/07/25 07:18:32;;;;;;;5.75;2.60;;;;;;;26.81;72.64;97514.19;4478937;31;20099;-67
2023/07/25 07:21:00;;;;;;;5.00;2.90;;;;;;;27.12;73.22;97504.12;4476695;31;20108;-67
2023/07/25 07:23:28;;;;;;;11.23;2.75;;;;;;;27.38;71.48;97499.44;4479426;31;20157;-67
2023/07/25 07:25:57;;;;;;;3.78;2.50;;;;;;;27.66;71.56;97501.69;4478189;31;20120;-66
2023/07/25 07:28:26;;;;;;;6.95;3.00;;;;;;;27.62;70.47;97490.69;4476367;31;20107;-66
2023/07/25 07:30:54;;;;;;;3.62;2.42;;;;;;;28.06;71.02;97489.06;4479680;31;20138;-66
2023/07/25 07:33:24;;;;;;;5.20;2.92;;;;;;;28.19;67.42;97501.03;4477775;31;20093;-66
2023/07/25 07:35:51;;;;;;;8.75;2.90;;;;;;;28.09;69.23;97491.97;4480283;31;20116;-66
2023/07/25 07:38:20;;;;;;;6.55;3.15;;;;;;;28.12;67.91;97486.03;4479351;31;20126;-66
2023/07/25 07:40:48;;;;;;;4.97;2.20;;;;;;;28.45;65.91;97482.72;4478719;31;20197;-66
2023/07/25 07:43:16;;;;;;;9.15;2.90;;;;;;;28.38;72.26;97499.25;4478140;31;20440;-66
2023/07/25 07:45:45;;;;;;;7.15;2.92;;;;;;;28.00;77.32;97500.94;4476201;31;20674;-66
2023/07/25 07:48:12;;;;;;;6.55;2.67;;;;;;;27.47;80.81;97502.34;4468958;31;20144;-65
2023/07/25 07:50:40;;;;;;;6.97;3.33;;;;;;;26.91;84.51;97501.50;4478176;31;20415;-66
2023/07/25 07:53:07;;;;;;;6.65;3.05;;;;;;;26.87;84.42;97495.09;4479631;32;20085;-67
2023/07/25 07:55:34;;;;;;;7.00;3.30;;;;;;;26.94;83.04;97504.75;4475976;31;20096;-66
2023/07/25 07:58:02;;;;;;;5.55;2.80;;;;;;;26.66;83.54;97499.75;4479918;31;20108;-66
2023/07/25 08:00:31;;;;;;;10.90;3.15;;;;;;;26.31;88.05;97497.88;4480712;31;20119;-66
2023/07/25 08:02:58;;;;;;;12.43;2.80;;;;;;;26.26;86.99;97512.12;4480144;32;20081;-66
2023/07/25 08:05:25;;;;;;;9.07;3.47;;;;;;;25.74;90.45;97499.75;4479970;31;20143;-66
2023/07/25 08:07:54;;;;;;;6.65;2.72;;;;;;;25.65;90.91;97500.28;4479707;31;20100;-66
2023/07/25 08:10:24;;;;;;;5.65;3.10;;;;;;;25.55;91.93;97502.94;4475925;31;20131;-66
2023/07/25 08:12:52;;;;;;;6.32;3.25;;;;;;;24.83;94.87;97501.87;4479937;31;20118;-66
2023/07/25 08:15:19;;;;;;;5.12;2.40;;;;;;;24.92;92.14;97498.44;4477720;31;20161;-66
2023/07/25 08:17:48;;;;;;;5.87;2.90;;;;;;;24.94;92.14;97496.31;4478461;31;20104;-66
2023/07/25 08:20:15;;;;;;;7.55;2.50;;;;;;;24.80;93.61;97473.75;4476732;31;20100;-66
2023/07/25 08:22:43;;;;;;;8.98;2.35;;;;;;;24.32;96.76;97481.75;4480746;31;20076;-66
2023/07/25 08:25:11;;;;;;;9.00;3.00;;;;;;;24.48;94.26;97473.81;4479535;31;20613;-66
2023/07/25 08:27:38;;;;;;;8.23;3.10;;;;;;;24.35;96.00;97470.53;4479572;31;20152;-66
2023/07/25 08:30:07;;;;;;;10.85;3.00;;;;;;;24.08;98.02;97454.56;4478341;31;20100;-66
2023/07/25 08:32:34;;;;;;;5.03;2.30;;;;;;;23.90;100.00;97463.78;4476931;31;20168;-66
2023/07/25 08:35:01;;;;;;;5.82;3.05;;;;;;;23.85;100.00;97469.91;4479984;31;20120;-66
2023/07/25 08:37:30;;;;;;;5.57;2.50;;;;;;;23.79;100.00;97462.87;4477186;31;20633;-66
2023/07/25 08:39:57;;;;;;;5.20;2.80;;;;;;;23.69;100.00;97465.47;4476641;31;20194;-66
2023/07/25 08:42:25;;;;;;;9.38;3.75;;;;;;;23.54;100.00;97469.63;4481323;31;20507;-66
2023/07/25 08:44:53;;;;;;;9.55;3.10;;;;;;;23.41;100.00;97462.00;4465653;32;20104;-66
2023/07/25 08:47:26;;;;;;;7.22;3.12;;;;;;;23.12;100.00;97458.75;4478372;32;20126;-66
2023/07/25 08:49:56;;;;;;;9.65;3.70;;;;;;;22.98;100.00;97461.81;4473774;31;20092;-66
2023/07/25 08:52:28;;;;;;;7.57;3.30;;;;;;;22.98;100.00;97471.66;4479652;31;20158;-66
2023/07/25 08:54:56;;;;;;;7.60;3.05;;;;;;;23.04;100.00;97495.53;4482045;31;20100;-66
2023/07/25 08:57:27;;;;;;;8.73;3.17;;;;;;;23.09;100.00;97505.50;4482418;31;20556;-66
2023/07/25 08:59:56;;;;;;;8.85;3.00;;;;;;;23.14;100.00;97504.75;4478725;31;20473;-66
2023/07/25 09:02:25;;;;;;;9.73;2.97;;;;;;;23.14;100.00;97515.44;4479717;31;20175;-66
2023/07/25 09:04:52;;;;;;;8.68;3.35;;;;;;;23.10;100.00;97581.09;4477622;32;20153;-66
2023/07/25 09:07:20;;;;;;;6.93;3.00;;;;;;;22.81;100.00;97685.34;4474696;31;20144;-66
2023/07/25 09:09:48;;;;;;;5.90;2.80;;;;;;;22.62;100.00;97780.84;4479742;31;20104;-66
2023/07/25 09:12:16;;;;;;;6.90;3.25;;;;;;;22.32;100.00;97814.75;4479190;31;20469;-65
2023/07/25 09:14:43;;;;;;;7.05;3.08;;;;;;;22.09;100.00;97831.59;4479819;31;20099;-66
2023/07/25 09:17:12;;;;;;;8.02;2.80;;;;;;;21.77;100.00;97817.81;4477305;31;20126;-66
2023/07/25 09:19:41;;;;;;;5.18;2.87;;;;;;;21.61;100.00;97776.72;4479654;31;20088;-66
2023/07/25 09:22:28;;;;;;;5.47;2.87;;;;;;;21.38;100.00;97762.31;4479642;31;20089;-66
2023/07/25 09:24:58;;;;;;;7.70;3.12;;;;;;;21.16;100.00;97747.94;4476849;31;20171;-66
2023/07/25 09:27:26;;;;;;;11.32;3.60;;;;;;;21.02;100.00;97752.69;4479256;31;20171;-66
2023/07/25 09:29:53;;;;;;;10.70;4.28;;;;;;;21.01;100.00;97745.72;4479114;31;20093;-67
2023/07/25 09:32:27;;;;;;;7.00;3.40;;;;;;;20.94;100.00;97740.53;4479621;31;20108;-67
2023/07/25 09:35:00;;;;;;;8.35;3.60;;;;;;;20.85;100.00;97733.91;4474805;31;20161;-67
2023/07/25 09:37:31;;;;;;;9.73;4.20;;;;;;;20.54;100.00;97714.47;4477580;31;20100;-66
2023/07/25 09:39:58;;;;;;;7.45;3.83;;;;;;;20.28;100.00;97703.16;4476482;31;20540;-66
2023/07/25 09:42:25;;;;;;;8.48;4.30;;;;;;;20.14;100.00;97705.22;4475049;31;20116;-66
2023/07/25 09:44:54;;;;;;;9.15;4.40;;;;;;;19.93;100.00;97697.72;4473802;31;20127;-66
2023/07/25 09:47:26;;;;;;;9.23;4.72;;;;;;;19.95;100.00;97672.50;4474031;31;20531;-66
2023/07/25 09:49:56;;;;;;;11.88;4.43;;;;;;;19.78;100.00;97652.94;4473466;32;20116;-64
2023/07/25 09:52:25;;;;;;;7.47;4.07;;;;;;;19.72;100.00;97645.81;4472633;31;20133;-66
2023/07/25 09:54:52;;;;;;;11.45;4.85;;;;;;;19.70;100.00;97611.50;4482284;31;20505;-66
2023/07/25 09:57:21;;;;;;;11.52;4.37;;;;;;;19.66;100.00;97589.88;4484043;32;20096;-66
2023/07/25 09:59:51;;;;;;;8.25;4.43;;;;;;;19.74;100.00;97593.25;4483690;32;20156;-66
2023/07/25 10:02:18;;;;;;;9.02;4.72;;;;;;;19.96;100.00;97599.72;4476779;32;20118;-66
2023/07/25 10:04:46;;;;;;;10.18;4.65;;;;;;;19.98;100.00;97602.94;4481925;32;20159;-65
2023/07/25 10:07:15;;;;;;;9.38;4.68;;;;;;;20.23;100.00;97615.28;4482555;32;20123;-65
2023/07/25 10:09:45;;;;;;;9.40;5.00;;;;;;;20.29;100.00;97627.69;4485163;32;20140;-66
2023/07/25 10:12:14;;;;;;;8.55;4.85;;;;;;;20.39;100.00;97651.88;4485262;32;20115;-66
2023/07/25 10:14:41;;;;;;;9.13;4.20;;;;;;;20.78;100.00;97674.63;4484780;32;20123;-66
2023/07/25 10:17:08;;;;;;;10.80;4.60;;;;;;;20.60;100.00;97704.78;4484218;32;20420;-66
2023/07/25 10:19:54;;;;;;;9.00;4.15;;;;;;;20.59;100.00;97725.25;4485067;31;20557;-66
2023/07/25 10:22:39;;;;;;;9.82;4.35;;;;;;;20.44;100.00;97730.16;4484243;31;20095;-66
2023/07/25 10:25:41;;;;;;;17.62;4.62;;;;;;;20.53;100.00;97686.22;4485014;31;20131;-66
2023/07/25 10:28:11;;;;;;;8.65;4.75;;;;;;;20.62;100.00;97668.91;4435926;32;20569;-67
2023/07/25 10:30:45;;;;;;;7.82;4.32;;;;;;;21.15;100.00;97658.44;4436153;32;20126;-68
2023/07/25 10:33:14;;;;;;;10.88;4.60;;;;;;;21.69;100.00;97640.41;4434539;32;20085;-67
2023/07/25 10:35:52;;;;;;;8.73;4.57;;;;;;;21.82;100.00;97633.16;4435061;32;20183;-67
2023/07/25 10:38:23;;;;;;;7.57;3.90;;;;;;;22.09;100.00;97618.22;4435799;32;20169;-68
2023/07/25 10:40:57;;;;;;;9.15;4.20;;;;;;;22.06;100.00;97597.38;4422498;32;20550;-67
2023/07/25 10:44:00;;;;;;;12.48;4.03;;;;;;;21.48;100.00;97574.41;4434721;32;20100;-67
2023/07/25 10:46:33;;;;;;;7.70;3.70;;;;;;;21.39;100.00;97561.47;4435539;32;20098;-67
2023/07/25 10:49:03;;;;;;;8.02;4.43;;;;;;;21.32;100.00;97571.44;4435522;32;20121;-67
2023/07/25 10:51:51;;;;;;;6.97;3.85;;;;;;;21.29;100.00;97571.91;4435792;32;20627;-67
2023/07/25 10:54:21;;;;;;;8.82;4.03;;;;;;;21.28;100.00;97559.63;4435177;32;20597;-68
2023/07/25 10:57:09;;;;;;;8.32;3.92;;;;;;;21.83;100.00;97570.81;4433366;32;20213;-67
2023/07/25 10:59:55;;;;;;;7.28;3.72;;;;;;;;;;4432278;32;20101;-68
2023/07/25 11:02:40;;;;;;;7.85;3.65;;;;;;;22.84;100.00;97592.19;4460696;32;20495;-68
2023/07/25 11:05:12;;;;;;;7.65;3.50;;;;;;;22.91;100.00;97589.38;4481705;31;20576;-67
2023/07/25 11:07:46;;;;;;;7.47;3.30;;;;;;;22.82;100.00;97580.97;4482039;31;20089;-67
2023/07/25 11:10:20;;;;;;;6.45;3.20;;;;;;;22.50;100.00;97554.06;4482884;31;20110;-67
2023/07/25 11:12:51;;;;;;;5.63;3.47;;;;;;;22.19;100.00;97536.75;4483767;31;20171;-67
2023/07/25 11:15:20;;;;;;;6.53;3.37;;;;;;;22.38;100.00;97515.97;4482858;32;20114;-66
2023/07/25 11:18:06;;;;;;;6.95;3.47;;;;;;;22.66;100.00;97497.19;4483878;31;20160;-66
2023/07/25 11:20:34;;;;;;;6.30;3.70;;;;;;;22.88;100.00;97488.38;4484311;31;20163;-66
2023/07/25 11:23:02;;;;;;;7.20;3.62;;;;;;;22.99;100.00;97486.63;4484453;32;20088;-66
2023/07/25 11:25:30;;;;;;;4.40;3.03;;;;;;;22.98;100.00;97483.16;4484600;31;20084;-66
2023/07/25 11:27:58;;;;;;;6.95;3.78;;;;;;;23.10;100.00;97487.59;4484494;32;20138;-66
2023/07/25 11:30:25;;;;;;;6.80;3.50;;;;;;;23.17;100.00;97489.00;4484557;31;20088;-66
2023/07/25 11:32:53;;;;;;;6.28;3.40;;;;;;;23.39;100.00;97480.97;4484679;31;20104;-66
2023/07/25 11:35:25;;;;;;;6.37;3.50;;;;;;;23.36;100.00;97480.66;4483108;32;20445;-66